createdAt,value
2022-11-24T00:02:05.902Z,3.17
2022-11-24T00:04:53.053Z,4.20
2022-11-24T00:07:39.885Z,3.83
2022-11-24T00:10:28.413Z,4.20
2022-11-24T00:13:15.509Z,3.80
2022-11-24T00:16:06.448Z,4.13
2022-11-24T00:18:54.951Z,3.30
2022-11-24T00:21:41.699Z,3.30
2022-11-24T00:24:28.522Z,4.00
2022-11-24T00:27:16.473Z,3.30
2022-11-24T00:30:03.208Z,3.47
2022-11-24T00:32:50.252Z,4.13
2022-11-24T00:35:37.218Z,3.87
2022-11-24T00:38:24.355Z,3.40
2022-11-24T00:41:11.815Z,3.47
2022-11-24T00:44:00.318Z,3.00
2022-11-24T00:46:47.381Z,3.53
2022-11-24T00:49:36.088Z,2.83
2022-11-24T00:52:22.920Z,3.40
2022-11-24T00:55:09.965Z,3.63
2022-11-24T00:57:56.755Z,3.90
2022-11-24T01:00:44.887Z,3.73
2022-11-24T01:03:32.008Z,3.57
2022-11-24T01:06:20.594Z,3.30
2022-11-24T01:09:07.594Z,3.43
2022-11-24T01:12:04.304Z,2.73
2022-11-24T01:14:51.389Z,3.57
2022-11-24T01:17:39.952Z,3.60
2022-11-24T01:20:27.107Z,3.00
2022-11-24T01:23:14.146Z,3.60
2022-11-24T01:26:01.121Z,3.57
2022-11-24T01:28:48.916Z,3.77
2022-11-24T01:31:36.867Z,3.67
2022-11-24T01:34:25.375Z,4.23
2022-11-24T01:37:12.380Z,3.37
2022-11-24T01:39:59.718Z,3.47
2022-11-24T01:42:49.192Z,3.50
2022-11-24T01:45:40.637Z,3.23
2022-11-24T01:48:30.257Z,3.43
2022-11-24T01:51:21.799Z,3.70
2022-11-24T01:54:12.408Z,4.20
2022-11-24T01:57:01.407Z,3.13
2022-11-24T01:59:48.607Z,2.53
2022-11-24T02:02:40.434Z,2.80
2022-11-24T02:05:29.867Z,3.27
2022-11-24T02:08:22.262Z,3.20
2022-11-24T02:11:09.350Z,3.20
2022-11-24T02:13:57.227Z,3.40
2022-11-24T02:16:49.209Z,2.97
2022-11-24T02:19:43.296Z,3.50
2022-11-24T02:22:34.539Z,2.70
2022-11-24T02:25:30.458Z,3.07
2022-11-24T02:28:20.451Z,3.43
2022-11-24T02:31:08.038Z,2.33
2022-11-24T02:33:55.412Z,2.60
2022-11-24T02:36:42.383Z,2.60
2022-11-24T02:39:29.455Z,3.30
2022-11-24T02:42:16.677Z,2.50
2022-11-24T02:45:04.971Z,2.87
2022-11-24T02:47:51.651Z,2.30
2022-11-24T02:50:39.088Z,2.67
2022-11-24T02:53:26.241Z,2.50
2022-11-24T02:56:13.334Z,2.93
2022-11-24T02:59:00.230Z,3.33
2022-11-24T03:01:48.653Z,2.50
2022-11-24T03:04:36.201Z,2.40
2022-11-24T03:07:24.013Z,2.90
2022-11-24T03:10:11.404Z,2.43
2022-11-24T03:12:58.245Z,2.77
2022-11-24T03:15:45.312Z,2.30
2022-11-24T03:18:33.690Z,2.70
2022-11-24T03:21:20.428Z,2.20
2022-11-24T03:24:07.590Z,2.27
2022-11-24T03:26:54.298Z,3.27
2022-11-24T03:29:41.379Z,2.53
2022-11-24T03:32:28.580Z,2.03
2022-11-24T03:35:17.035Z,2.13
2022-11-24T03:38:04.355Z,2.07
2022-11-24T03:40:51.284Z,2.87
2022-11-24T03:43:43.138Z,2.20
2022-11-24T03:46:31.289Z,2.23
2022-11-24T03:49:18.546Z,2.53
2022-11-24T03:52:08.388Z,2.37
2022-11-24T03:54:55.630Z,2.67
2022-11-24T03:57:42.489Z,2.43
2022-11-24T04:00:29.660Z,2.07
2022-11-24T04:03:16.615Z,2.47
2022-11-24T04:06:03.557Z,2.80
2022-11-24T04:08:52.087Z,2.40
2022-11-24T04:11:56.772Z,2.20
2022-11-24T04:14:43.773Z,2.43
2022-11-24T04:17:30.872Z,2.23
2022-11-24T04:20:18.519Z,2.47
2022-11-24T04:23:06.083Z,2.87
2022-11-24T04:25:54.610Z,2.73
2022-11-24T04:28:41.740Z,2.07
2022-11-24T04:31:28.841Z,2.33
2022-11-24T04:34:16.032Z,2.17
2022-11-24T04:37:03.216Z,2.73
2022-11-24T04:39:50.142Z,2.20
2022-11-24T04:42:38.537Z,2.53
2022-11-24T04:45:25.938Z,2.57
2022-11-24T04:48:13.210Z,2.47
2022-11-24T04:51:00.188Z,2.20
2022-11-24T04:53:47.552Z,2.77
2022-11-24T04:56:34.503Z,2.33
2022-11-24T04:59:22.955Z,2.60
2022-11-24T05:02:10.407Z,3.00
2022-11-24T05:04:57.561Z,2.67
2022-11-24T05:07:44.380Z,3.27
2022-11-24T05:10:37.296Z,2.80
2022-11-24T05:13:24.170Z,2.57
2022-11-24T05:16:12.836Z,3.37
2022-11-24T05:19:00.236Z,2.80
2022-11-24T05:21:47.223Z,2.50
2022-11-24T05:24:34.159Z,2.70
2022-11-24T05:27:21.234Z,2.90
2022-11-24T05:30:08.976Z,2.67
2022-11-24T05:32:57.472Z,2.40
2022-11-24T05:35:44.441Z,2.37
2022-11-24T05:38:32.091Z,2.93
2022-11-24T05:41:18.525Z,2.87
2022-11-24T05:44:05.941Z,2.43
2022-11-24T05:46:53.180Z,2.27
2022-11-24T05:49:41.501Z,3.73
2022-11-24T05:52:28.705Z,3.00
2022-11-24T05:55:16.370Z,3.67
2022-11-24T05:58:03.785Z,2.83
2022-11-24T06:00:50.742Z,3.03
2022-11-24T06:03:37.811Z,4.17
2022-11-24T06:06:26.388Z,2.50
2022-11-24T06:09:13.591Z,3.40
2022-11-24T06:12:00.771Z,2.80
2022-11-24T06:14:48.274Z,3.27
2022-11-24T06:17:35.550Z,3.17
2022-11-24T06:20:22.683Z,3.00
2022-11-24T06:23:11.004Z,2.83
2022-11-24T06:25:59.483Z,3.23
2022-11-24T06:28:46.440Z,3.10
2022-11-24T06:31:33.490Z,3.53
2022-11-24T06:34:20.670Z,3.17
2022-11-24T06:37:07.749Z,3.20
2022-11-24T06:39:56.453Z,4.00
2022-11-24T06:42:43.398Z,3.37
2022-11-24T06:45:30.599Z,3.40
2022-11-24T06:48:17.828Z,3.47
2022-11-24T06:51:05.710Z,4.10
2022-11-24T06:53:52.951Z,3.83
2022-11-24T06:56:41.483Z,3.43
2022-11-24T06:59:29.195Z,2.90
2022-11-24T07:02:16.198Z,4.20
2022-11-24T07:05:03.844Z,2.73
2022-11-24T07:07:51.191Z,3.67
2022-11-24T07:10:38.848Z,3.37
2022-11-24T07:13:27.217Z,3.10
2022-11-24T07:16:15.903Z,3.30
2022-11-24T07:19:03.317Z,3.67
2022-11-24T07:21:50.054Z,3.20
2022-11-24T07:24:37.277Z,4.10
2022-11-24T07:27:24.503Z,3.23
2022-11-24T07:30:13.362Z,3.50
2022-11-24T07:33:00.962Z,3.63
2022-11-24T07:35:47.994Z,5.43
2022-11-24T07:38:35.321Z,3.10
2022-11-24T07:41:22.437Z,4.17
2022-11-24T07:44:09.941Z,3.73
2022-11-24T07:46:58.202Z,3.83
2022-11-24T07:49:45.319Z,4.60
2022-11-24T07:52:32.293Z,3.50
2022-11-24T07:55:19.308Z,3.93
2022-11-24T07:58:06.643Z,4.20
2022-11-24T08:00:53.862Z,3.37
2022-11-24T08:03:42.263Z,3.70
2022-11-24T08:06:38.658Z,3.07
2022-11-24T08:09:27.726Z,2.63
2022-11-24T08:12:16.460Z,3.17
2022-11-24T08:15:07.841Z,3.10
2022-11-24T08:17:57.726Z,3.40
2022-11-24T08:20:46.637Z,3.50
2022-11-24T08:23:33.798Z,2.57
2022-11-24T08:26:20.823Z,2.73
2022-11-24T08:29:09.349Z,3.73
2022-11-24T08:31:57.248Z,3.53
2022-11-24T08:34:44.081Z,3.00
2022-11-24T08:37:32.475Z,2.67
2022-11-24T08:40:19.745Z,3.13
2022-11-24T08:43:06.908Z,2.77
2022-11-24T08:45:54.176Z,1.90
2022-11-24T08:48:41.839Z,1.90
2022-11-24T08:51:29.598Z,2.50
2022-11-24T08:54:18.834Z,2.00
2022-11-24T08:57:06.092Z,1.90
2022-11-24T08:59:53.563Z,1.73
2022-11-24T09:02:42.455Z,2.00
2022-11-24T09:05:51.251Z,2.47
2022-11-24T09:08:37.055Z,1.97
2022-11-24T09:11:26.001Z,1.60
2022-11-24T09:14:13.169Z,1.93
2022-11-24T09:17:00.680Z,1.50
2022-11-24T09:19:48.363Z,1.90
2022-11-24T09:22:35.617Z,2.07
2022-11-24T09:25:23.592Z,1.60
2022-11-24T09:28:11.535Z,2.13
2022-11-24T09:31:01.925Z,1.83
2022-11-24T09:33:49.141Z,2.07
2022-11-24T09:36:36.655Z,1.80
2022-11-24T09:39:23.744Z,1.70
2022-11-24T09:42:15.827Z,2.13
2022-11-24T09:45:19.955Z,1.47
2022-11-24T09:48:22.319Z,1.67
2022-11-24T09:51:12.177Z,1.90
2022-11-24T09:54:03.004Z,1.50
2022-11-24T09:56:51.262Z,1.80
2022-11-24T09:59:38.270Z,1.83
2022-11-24T10:02:26.760Z,1.80
2022-11-24T10:05:15.491Z,1.47
2022-11-24T10:08:10.117Z,1.57
2022-11-24T10:10:59.646Z,1.50
2022-11-24T10:14:00.654Z,1.57
2022-11-24T10:16:52.725Z,1.50
2022-11-24T10:19:47.061Z,1.37
2022-11-24T10:22:40.842Z,1.77
2022-11-24T10:25:28.810Z,1.40
2022-11-24T10:28:16.766Z,1.60
2022-11-24T10:31:15.467Z,1.40
2022-11-24T10:34:04.345Z,1.40
2022-11-24T10:36:57.510Z,1.40
2022-11-24T10:39:51.520Z,2.13
2022-11-24T10:42:42.692Z,1.20
2022-11-24T10:45:30.457Z,1.63
2022-11-24T10:48:20.786Z,1.70
2022-11-24T10:51:19.972Z,1.40
2022-11-24T10:54:13.311Z,1.40
2022-11-24T10:57:00.676Z,1.90
2022-11-24T10:59:47.939Z,1.40
2022-11-24T11:02:37.558Z,1.43
2022-11-24T11:05:42.377Z,1.47
2022-11-24T11:08:30.259Z,1.70
2022-11-24T11:11:23.747Z,1.60
2022-11-24T11:14:13.006Z,1.40
2022-11-24T11:17:00.800Z,1.67
2022-11-24T11:19:50.210Z,2.30
2022-11-24T11:22:38.787Z,1.27
2022-11-24T11:25:27.738Z,1.20
2022-11-24T11:28:26.739Z,1.27
2022-11-24T11:31:22.560Z,1.27
2022-11-24T11:34:25.044Z,1.53
2022-11-24T11:37:18.153Z,1.60
2022-11-24T11:40:08.043Z,1.43
2022-11-24T11:43:03.039Z,1.67
2022-11-24T11:45:58.032Z,2.00
2022-11-24T11:48:46.743Z,1.63
2022-11-24T11:51:44.534Z,1.30
2022-11-24T11:54:36.973Z,1.80
2022-11-24T11:57:31.115Z,1.80
2022-11-24T12:00:20.003Z,1.40
2022-11-24T12:03:19.424Z,1.93
2022-11-24T12:06:15.383Z,1.80
2022-11-24T12:09:20.653Z,2.03
2022-11-24T12:12:16.987Z,2.10
2022-11-24T12:15:11.071Z,2.07
2022-11-24T12:18:16.982Z,1.90
2022-11-24T12:21:24.581Z,2.53
2022-11-24T12:24:18.336Z,1.70
2022-11-24T12:27:07.501Z,2.60
2022-11-24T12:30:06.865Z,1.80
2022-11-24T12:33:20.126Z,2.50
2022-11-24T12:36:12.659Z,2.23
2022-11-24T12:39:05.611Z,1.77
2022-11-24T12:42:01.580Z,2.23
2022-11-24T12:44:57.292Z,1.87
2022-11-24T12:47:52.146Z,1.97
2022-11-24T12:50:39.879Z,2.20
2022-11-24T12:53:29.483Z,2.13
2022-11-24T12:56:24.755Z,2.27
2022-11-24T12:59:25.380Z,2.23
2022-11-24T13:02:17.754Z,1.97
2022-11-24T13:05:13.751Z,1.97
2022-11-24T13:08:03.685Z,2.00
2022-11-24T13:10:56.387Z,2.00
2022-11-24T13:13:59.556Z,2.20
2022-11-24T13:17:30.058Z,1.90
2022-11-24T13:20:17.314Z,1.70
2022-11-24T13:23:08.495Z,2.13
2022-11-24T13:26:16.606Z,1.83
2022-11-24T13:29:18.377Z,2.03
2022-11-24T13:32:51.714Z,1.70
2022-11-24T13:35:39.480Z,1.70
2022-11-24T13:38:41.123Z,1.90
2022-11-24T13:41:47.327Z,1.80
2022-11-24T13:44:56.222Z,1.80
2022-11-24T13:47:45.817Z,1.63
2022-11-24T13:50:52.194Z,1.73
2022-11-24T13:53:44.709Z,1.80
2022-11-24T13:56:32.694Z,2.70
2022-11-24T13:59:34.036Z,1.90
2022-11-24T14:02:24.209Z,2.00
2022-11-24T14:05:15.092Z,2.00
2022-11-24T14:08:02.205Z,1.93
2022-11-24T14:10:49.362Z,2.20
2022-11-24T14:13:36.615Z,2.33
2022-11-24T14:16:24.594Z,1.83
2022-11-24T14:19:13.279Z,2.43
2022-11-24T14:22:00.554Z,2.23
2022-11-24T14:24:52.949Z,2.37
2022-11-24T14:27:40.820Z,1.97
2022-11-24T14:30:28.235Z,2.13
2022-11-24T14:33:15.901Z,2.13
2022-11-24T14:36:04.368Z,2.00
2022-11-24T14:38:51.714Z,2.47
2022-11-24T14:41:39.017Z,2.40
2022-11-24T14:44:28.131Z,2.33
2022-11-24T14:47:18.704Z,2.30
2022-11-24T14:50:13.608Z,3.10
2022-11-24T14:53:02.199Z,2.40
2022-11-24T14:56:08.570Z,2.53
2022-11-24T14:58:56.892Z,2.10
2022-11-24T15:01:44.500Z,2.20
2022-11-24T15:05:03.104Z,2.70
2022-11-24T15:07:51.490Z,2.40
2022-11-24T15:10:40.761Z,2.63
2022-11-24T15:13:28.031Z,2.03
2022-11-24T15:16:17.406Z,3.37
2022-11-24T15:19:06.697Z,2.80
2022-11-24T15:21:53.849Z,2.30
2022-11-24T15:24:50.340Z,2.73
2022-11-24T15:27:38.831Z,2.67
2022-11-24T15:30:26.218Z,2.30
2022-11-24T15:33:15.400Z,3.10
2022-11-24T15:36:02.824Z,2.97
2022-11-24T15:38:49.724Z,3.90
2022-11-24T15:41:37.162Z,2.57
2022-11-24T15:44:25.524Z,3.33
2022-11-24T15:47:12.608Z,2.50
2022-11-24T15:49:59.952Z,2.13
2022-11-24T15:52:46.948Z,2.87
2022-11-24T15:55:34.077Z,2.90
2022-11-24T15:58:21.150Z,3.33
2022-11-24T16:01:09.625Z,3.00
2022-11-24T16:03:56.409Z,2.33
2022-11-24T16:06:43.570Z,3.40
2022-11-24T16:09:30.727Z,3.33
2022-11-24T16:12:18.016Z,2.93
2022-11-24T16:15:05.087Z,3.43
2022-11-24T16:17:53.438Z,3.10
2022-11-24T16:20:40.378Z,3.53
2022-11-24T16:23:27.493Z,3.20
2022-11-24T16:26:14.680Z,3.50
2022-11-24T16:29:01.958Z,3.60
2022-11-24T16:31:50.415Z,3.80
2022-11-24T16:34:38.628Z,3.10
2022-11-24T16:37:25.731Z,3.67
2022-11-24T16:40:13.131Z,3.63
2022-11-24T16:43:00.075Z,4.33
2022-11-24T16:45:47.256Z,4.27
2022-11-24T16:48:37.190Z,3.37
2022-11-24T16:51:32.995Z,4.07
2022-11-24T16:54:21.617Z,3.67
2022-11-24T16:57:15.020Z,4.00
2022-11-24T17:00:02.602Z,4.60
2022-11-24T17:02:49.974Z,4.07
2022-11-24T17:05:36.948Z,4.20
2022-11-24T17:08:25.743Z,5.60
2022-11-24T17:11:14.308Z,4.30
2022-11-24T17:14:01.418Z,3.83
2022-11-24T17:16:48.749Z,4.33
2022-11-24T17:19:35.798Z,4.07
2022-11-24T17:22:23.058Z,4.33
2022-11-24T17:25:11.586Z,4.90
2022-11-24T17:27:58.675Z,4.53
2022-11-24T17:30:45.823Z,5.50
2022-11-24T17:33:32.885Z,5.20
2022-11-24T17:36:19.855Z,5.20
2022-11-24T17:39:08.019Z,4.23
2022-11-24T17:41:56.403Z,4.17
2022-11-24T17:44:43.611Z,5.00
2022-11-24T17:47:30.860Z,4.17
2022-11-24T17:50:22.560Z,4.27
2022-11-24T17:53:12.876Z,5.17
2022-11-24T17:56:03.480Z,5.47
2022-11-24T17:58:54.222Z,4.60
2022-11-24T18:01:41.294Z,9.27
2022-11-24T18:04:28.366Z,6.50
2022-11-24T18:07:15.421Z,12.87
2022-11-24T18:10:02.702Z,8.90
2022-11-24T18:12:49.639Z,8.40
2022-11-24T18:15:38.071Z,6.27
2022-11-24T18:18:24.933Z,6.27
2022-11-24T18:21:14.134Z,5.30
2022-11-24T18:24:01.085Z,8.27
2022-11-24T18:26:48.256Z,7.57
2022-11-24T18:29:35.203Z,7.80
2022-11-24T18:32:23.985Z,8.53
2022-11-24T18:35:11.772Z,12.20
2022-11-24T18:37:59.075Z,11.47
2022-11-24T18:40:46.342Z,8.03
2022-11-24T18:43:33.913Z,6.43
2022-11-24T18:46:21.219Z,5.57
2022-11-24T18:49:10.082Z,5.30
2022-11-24T18:51:57.421Z,7.57
2022-11-24T18:54:44.403Z,7.07
2022-11-24T18:57:31.900Z,9.27
2022-11-24T19:00:19.346Z,7.70
2022-11-24T19:03:06.731Z,7.37
2022-11-24T19:05:55.252Z,8.93
2022-11-24T19:08:42.373Z,12.13
2022-11-24T19:11:30.194Z,12.37
2022-11-24T19:14:19.067Z,10.50
2022-11-24T19:17:06.550Z,12.27
2022-11-24T19:19:53.875Z,8.53
2022-11-24T19:22:42.400Z,6.37
2022-11-24T19:25:29.326Z,6.67
2022-11-24T19:28:16.393Z,5.70
2022-11-24T19:31:03.880Z,7.00
2022-11-24T19:33:52.935Z,7.43
2022-11-24T19:36:43.086Z,7.47
2022-11-24T19:39:31.258Z,7.10
2022-11-24T19:42:18.645Z,7.70
2022-11-24T19:45:06.568Z,7.87
2022-11-24T19:47:53.513Z,7.73
2022-11-24T19:50:40.458Z,7.00
2022-11-24T19:53:27.846Z,8.10
2022-11-24T19:56:18.822Z,6.60
2022-11-24T19:59:07.438Z,7.67
2022-11-24T20:01:55.119Z,6.33
2022-11-24T20:04:43.219Z,5.97
2022-11-24T20:07:30.383Z,7.00
2022-11-24T20:10:17.547Z,6.83
2022-11-24T20:13:05.580Z,7.67
2022-11-24T20:15:52.829Z,7.33
2022-11-24T20:18:42.192Z,6.70
2022-11-24T20:21:31.243Z,7.77
2022-11-24T20:24:19.077Z,9.87
2022-11-24T20:27:06.439Z,7.83
2022-11-24T20:29:54.895Z,6.23
2022-11-24T20:32:42.108Z,7.67
2022-11-24T20:35:29.391Z,8.47
2022-11-24T20:38:16.405Z,7.73
2022-11-24T20:41:09.027Z,8.73
2022-11-24T20:43:57.694Z,9.20
2022-11-24T20:46:46.645Z,8.30
2022-11-24T20:49:33.896Z,8.13
2022-11-24T20:52:21.112Z,7.50
2022-11-24T20:55:08.554Z,7.07
2022-11-24T20:57:55.529Z,8.77
2022-11-24T21:00:42.668Z,7.73
2022-11-24T21:03:30.996Z,8.30
2022-11-24T21:06:18.203Z,8.03
2022-11-24T21:09:05.800Z,7.70
2022-11-24T21:11:52.650Z,8.30
2022-11-24T21:14:39.853Z,8.07
2022-11-24T21:17:26.750Z,7.73
2022-11-24T21:20:14.992Z,8.53
2022-11-24T21:23:03.131Z,8.33
2022-11-24T21:25:49.920Z,8.80
2022-11-24T21:28:37.097Z,10.13
2022-11-24T21:31:24.408Z,10.90
2022-11-24T21:34:15.204Z,8.70
2022-11-24T21:37:03.692Z,9.73
2022-11-24T21:39:50.711Z,9.87
2022-11-24T21:42:37.967Z,9.83
2022-11-24T21:45:25.356Z,10.07
2022-11-24T21:48:12.190Z,9.43
2022-11-24T21:50:59.864Z,8.97
2022-11-24T21:53:49.381Z,8.30
2022-11-24T21:56:36.321Z,9.03
2022-11-24T21:59:23.472Z,8.70
2022-11-24T22:02:13.217Z,8.20
2022-11-24T22:05:00.760Z,8.97
2022-11-24T22:07:47.908Z,8.47
2022-11-24T22:10:36.128Z,7.73
2022-11-24T22:13:23.011Z,8.73
2022-11-24T22:16:11.103Z,8.23
2022-11-24T22:18:58.485Z,9.07
2022-11-24T22:21:45.657Z,8.60
2022-11-24T22:24:32.937Z,8.13
2022-11-24T22:27:21.409Z,8.83
2022-11-24T22:30:10.443Z,9.33
2022-11-24T22:32:57.207Z,9.10
2022-11-24T22:35:44.293Z,9.57
2022-11-24T22:38:32.046Z,8.20
2022-11-24T22:41:19.667Z,8.80
2022-11-24T22:44:08.204Z,8.10
2022-11-24T22:46:55.486Z,7.67
2022-11-24T22:49:42.822Z,7.93
2022-11-24T22:52:29.747Z,8.63
2022-11-24T22:55:16.729Z,9.17
2022-11-24T22:58:03.847Z,8.93
2022-11-24T23:00:52.431Z,9.53
2022-11-24T23:03:39.326Z,8.63
2022-11-24T23:06:26.947Z,8.83
2022-11-24T23:09:14.355Z,8.20
2022-11-24T23:12:01.651Z,9.10
2022-11-24T23:14:48.713Z,8.27
2022-11-24T23:17:37.122Z,8.03
2022-11-24T23:20:24.293Z,7.70
2022-11-24T23:23:11.349Z,8.57
2022-11-24T23:26:01.135Z,8.57
2022-11-24T23:28:48.287Z,8.57
2022-11-24T23:31:35.541Z,7.20
2022-11-24T23:34:24.073Z,6.33
2022-11-24T23:37:11.037Z,7.70
2022-11-24T23:39:58.532Z,8.17
2022-11-24T23:42:48.250Z,8.23
2022-11-24T23:45:35.171Z,7.93
2022-11-24T23:48:22.114Z,7.80
2022-11-24T23:51:13.442Z,8.40
2022-11-24T23:54:01.155Z,9.10
2022-11-24T23:56:48.343Z,7.73
2022-11-24T23:59:35.386Z,7.40
